createdAt,value
2022-12-11T00:02:22.017Z,0.70
2022-12-11T00:05:26.318Z,0.80
2022-12-11T00:08:30.909Z,0.70
2022-12-11T00:11:35.576Z,0.70
2022-12-11T00:14:39.989Z,0.70
2022-12-11T00:17:43.902Z,0.60
2022-12-11T00:20:48.537Z,0.50
2022-12-11T00:23:52.687Z,0.50
2022-12-11T00:26:57.032Z,0.50
2022-12-11T00:30:00.892Z,0.50
2022-12-11T00:33:05.466Z,0.40
2022-12-11T00:36:20.233Z,0.40
2022-12-11T00:39:24.872Z,0.30
2022-12-11T00:42:29.151Z,0.30
2022-12-11T00:45:37.526Z,0.30
2022-12-11T00:48:42.308Z,0.30
2022-12-11T00:51:46.943Z,0.20
2022-12-11T00:54:51.524Z,0.20
2022-12-11T00:57:56.322Z,0.20
2022-12-11T01:01:10.725Z,0.20
2022-12-11T01:04:14.992Z,0.20
2022-12-11T01:07:19.595Z,0.20
2022-12-11T01:10:23.991Z,0.20
2022-12-11T01:13:28.081Z,0.10
2022-12-11T01:16:32.336Z,0.00
2022-12-11T01:19:37.286Z,0.10
2022-12-11T01:22:41.797Z,0.00
2022-12-11T01:25:45.888Z,0.20
2022-12-11T01:28:51.384Z,-0.10
2022-12-11T01:31:55.709Z,0.00
2022-12-11T01:34:59.963Z,-0.10
2022-12-11T01:38:04.345Z,-0.10
2022-12-11T01:41:09.358Z,-0.10
2022-12-11T01:44:16.705Z,-0.10
2022-12-11T01:47:21.373Z,-0.20
2022-12-11T01:50:25.921Z,-0.20
2022-12-11T01:53:34.927Z,-0.30
2022-12-11T01:56:40.735Z,-0.30
2022-12-11T01:59:46.152Z,-0.30
2022-12-11T02:02:51.179Z,-0.40
2022-12-11T02:05:59.226Z,-0.40
2022-12-11T02:09:05.352Z,-0.50
2022-12-11T02:12:28.732Z,-0.50
2022-12-11T02:15:41.916Z,-0.60
2022-12-11T02:18:50.756Z,-0.60
2022-12-11T02:21:56.474Z,-0.60
2022-12-11T02:25:21.619Z,-0.60
2022-12-11T02:28:29.095Z,-0.70
2022-12-11T02:31:34.029Z,-0.70
2022-12-11T02:34:41.167Z,-0.70
2022-12-11T02:37:47.712Z,-0.70
2022-12-11T02:40:52.574Z,-0.80
2022-12-11T02:43:57.760Z,-0.80
2022-12-11T02:47:03.633Z,-0.90
2022-12-11T02:50:10.533Z,-0.90
2022-12-11T02:53:17.601Z,-0.90
2022-12-11T02:56:25.478Z,-0.90
2022-12-11T02:59:38.047Z,-0.90
2022-12-11T03:02:42.851Z,-1.00
2022-12-11T03:05:47.533Z,-1.00
2022-12-11T03:08:52.297Z,-1.00
2022-12-11T03:11:56.453Z,-1.10
2022-12-11T03:15:02.185Z,-1.10
2022-12-11T03:18:19.058Z,-1.20
2022-12-11T03:21:42.065Z,-1.20
2022-12-11T03:24:48.188Z,-1.20
2022-12-11T03:28:12.479Z,-1.30
2022-12-11T03:31:26.250Z,-1.10
2022-12-11T03:34:36.608Z,-1.30
2022-12-11T03:37:42.109Z,-1.30
2022-12-11T03:40:48.788Z,-1.40
2022-12-11T03:43:54.890Z,-1.40
2022-12-11T03:47:00.028Z,-1.40
2022-12-11T03:50:05.378Z,-1.40
2022-12-11T03:53:10.182Z,-1.40
2022-12-11T03:56:16.074Z,-1.50
2022-12-11T03:59:20.402Z,-1.60
2022-12-11T04:02:24.877Z,-1.70
2022-12-11T04:05:29.277Z,-1.70
2022-12-11T04:08:33.351Z,-1.70
2022-12-11T04:11:37.656Z,-1.70
2022-12-11T04:15:01.018Z,-1.70
2022-12-11T04:18:25.056Z,-1.80
2022-12-11T04:21:48.670Z,-1.80
2022-12-11T04:24:53.118Z,-1.80
2022-12-11T04:27:57.977Z,-1.90
2022-12-11T04:31:03.088Z,-2.00
2022-12-11T04:34:08.008Z,-1.90
2022-12-11T04:37:12.723Z,-2.00
2022-12-11T04:40:18.160Z,-2.00
2022-12-11T04:43:22.396Z,-2.10
2022-12-11T04:46:26.971Z,-2.10
2022-12-11T04:49:31.288Z,-2.10
2022-12-11T04:52:35.623Z,-2.30
2022-12-11T04:55:40.092Z,-2.20
2022-12-11T04:58:45.236Z,-2.30
2022-12-11T05:01:50.254Z,-2.30
2022-12-11T05:04:55.215Z,-2.30
2022-12-11T05:07:59.971Z,-2.30
2022-12-11T05:11:06.194Z,-2.30
2022-12-11T05:14:10.897Z,-2.40
2022-12-11T05:17:15.177Z,-2.40
2022-12-11T05:20:19.884Z,-2.50
2022-12-11T05:23:24.552Z,-2.50
2022-12-11T05:26:29.457Z,-2.60
2022-12-11T05:29:33.574Z,-2.70
2022-12-11T05:32:37.656Z,-2.80
2022-12-11T05:35:46.717Z,-3.00
2022-12-11T05:38:51.909Z,-2.90
2022-12-11T05:41:56.326Z,-3.00
2022-12-11T05:45:01.343Z,-3.00
2022-12-11T05:48:06.342Z,-3.10
2022-12-11T05:51:10.661Z,-3.20
2022-12-11T05:54:14.948Z,-3.20
2022-12-11T05:57:19.350Z,-3.20
2022-12-11T06:00:23.721Z,-3.30
2022-12-11T06:03:28.504Z,-3.40
2022-12-11T06:06:33.248Z,-3.40
2022-12-11T06:09:37.701Z,-3.50
2022-12-11T06:12:41.764Z,-3.50
2022-12-11T06:15:46.392Z,-3.40
2022-12-11T06:18:51.286Z,-3.40
2022-12-11T06:21:56.001Z,-3.40
2022-12-11T06:25:00.236Z,-3.40
2022-12-11T06:28:04.550Z,-3.40
2022-12-11T06:31:08.689Z,-3.40
2022-12-11T06:34:13.846Z,-3.30
2022-12-11T06:37:17.953Z,-3.30
2022-12-11T06:40:22.257Z,-3.40
2022-12-11T06:43:26.749Z,-3.40
2022-12-11T06:46:31.208Z,-3.40
2022-12-11T06:49:35.699Z,-3.30
2022-12-11T06:52:40.731Z,-3.40
2022-12-11T06:55:45.102Z,-3.60
2022-12-11T06:58:49.918Z,-3.60
2022-12-11T07:01:54.672Z,-3.60
2022-12-11T07:04:59.333Z,-3.70
2022-12-11T07:08:03.845Z,-3.60
2022-12-11T07:11:10.031Z,-3.60
2022-12-11T07:14:14.879Z,-3.60
2022-12-11T07:17:19.466Z,-3.50
2022-12-11T07:20:24.136Z,-3.50
2022-12-11T07:23:28.806Z,-3.60
2022-12-11T07:26:33.123Z,-3.50
2022-12-11T07:29:37.595Z,-3.50
2022-12-11T07:32:42.302Z,-3.50
2022-12-11T07:35:46.796Z,-3.40
2022-12-11T07:38:51.049Z,-3.50
2022-12-11T07:41:55.744Z,-3.40
2022-12-11T07:44:59.924Z,-3.50
2022-12-11T07:48:04.418Z,-3.50
2022-12-11T07:51:09.757Z,-3.60
2022-12-11T07:54:16.595Z,-3.60
2022-12-11T07:57:20.746Z,-3.50
2022-12-11T08:00:24.859Z,-3.50
2022-12-11T08:03:29.790Z,-3.50
2022-12-11T08:06:35.993Z,-3.50
2022-12-11T08:09:40.283Z,-3.50
2022-12-11T08:12:44.321Z,-3.50
2022-12-11T08:15:48.938Z,-3.60
2022-12-11T08:18:53.659Z,-3.50
2022-12-11T08:21:57.705Z,-3.40
2022-12-11T08:25:02.325Z,-3.50
2022-12-11T08:28:06.927Z,-3.40
2022-12-11T08:31:13.234Z,-3.40
2022-12-11T08:34:17.554Z,-3.40
2022-12-11T08:37:21.597Z,-3.50
2022-12-11T08:40:25.611Z,-3.50
2022-12-11T08:43:29.532Z,-3.50
2022-12-11T08:46:33.686Z,-3.60
2022-12-11T08:49:37.809Z,-3.50
2022-12-11T08:52:41.969Z,-3.60
2022-12-11T08:55:46.100Z,-3.70
2022-12-11T08:58:50.810Z,-3.60
2022-12-11T09:01:55.669Z,-3.60
2022-12-11T09:04:59.812Z,-3.60
2022-12-11T09:08:04.654Z,-3.60
2022-12-11T09:11:10.349Z,-3.80
2022-12-11T09:14:16.009Z,-3.90
2022-12-11T09:17:20.405Z,-3.90
2022-12-11T09:20:24.616Z,-3.90
2022-12-11T09:23:28.895Z,-4.00
2022-12-11T09:26:33.417Z,-4.00
2022-12-11T09:29:38.104Z,-3.90
2022-12-11T09:32:42.362Z,-4.00
2022-12-11T09:35:46.948Z,-4.10
2022-12-11T09:38:52.161Z,-4.20
2022-12-11T09:42:17.439Z,-4.10
2022-12-11T09:45:21.770Z,-4.00
2022-12-11T09:48:26.423Z,-4.20
2022-12-11T09:51:36.640Z,-4.20
2022-12-11T09:54:45.122Z,-4.30
2022-12-11T09:58:16.292Z,-4.50
2022-12-11T10:01:34.597Z,-4.50
2022-12-11T10:04:53.309Z,-4.70
2022-12-11T10:08:27.308Z,-4.70
2022-12-11T10:11:54.476Z,-4.80
2022-12-11T10:15:12.945Z,-4.90
2022-12-11T10:18:19.269Z,-4.90
2022-12-11T10:21:23.560Z,-5.10
2022-12-11T10:25:07.527Z,-5.00
2022-12-11T10:27:55.294Z,-4.80
2022-12-11T10:31:02.513Z,-4.70
2022-12-11T10:34:13.395Z,-4.80
2022-12-11T10:37:17.880Z,-4.80
2022-12-11T10:40:22.088Z,-4.90
2022-12-11T10:43:34.387Z,-4.80
2022-12-11T10:46:38.853Z,-4.70
2022-12-11T10:49:54.872Z,-4.70
2022-12-11T10:53:00.458Z,-4.90
2022-12-11T10:56:04.747Z,-4.90
2022-12-11T10:59:21.192Z,-4.90
2022-12-11T11:02:30.409Z,-4.80
2022-12-11T11:05:36.602Z,-4.90
2022-12-11T11:08:42.614Z,-4.00
2022-12-11T11:11:50.128Z,-4.30
2022-12-11T11:15:01.574Z,-4.70
2022-12-11T11:18:16.650Z,-4.80
2022-12-11T11:21:22.363Z,-4.80
2022-12-11T11:24:28.795Z,-4.80
2022-12-11T11:27:32.975Z,-5.00
2022-12-11T11:30:39.584Z,-4.90
2022-12-11T11:33:58.576Z,-4.70
2022-12-11T11:37:05.996Z,-4.70
2022-12-11T11:40:22.791Z,-4.80
2022-12-11T11:43:33.321Z,-4.80
2022-12-11T11:46:38.080Z,-4.80
2022-12-11T11:50:03.202Z,-4.70
2022-12-11T11:53:20.237Z,-4.80
2022-12-11T11:56:31.375Z,-4.90
2022-12-11T11:59:39.657Z,-5.00
2022-12-11T12:02:44.251Z,-4.90
2022-12-11T12:05:48.600Z,-4.80
2022-12-11T12:09:13.090Z,-4.80
2022-12-11T12:12:33.796Z,-4.80
2022-12-11T12:15:45.090Z,-4.70
2022-12-11T12:19:01.736Z,-4.30
2022-12-11T12:22:29.520Z,-4.20
2022-12-11T12:25:49.504Z,-4.10
2022-12-11T12:28:57.145Z,-3.90
2022-12-11T12:32:04.875Z,-3.80
2022-12-11T12:35:28.027Z,-3.40
2022-12-11T12:38:35.257Z,-2.40
2022-12-11T12:42:04.110Z,-3.20
2022-12-11T12:45:14.636Z,-3.70
2022-12-11T12:48:19.728Z,-3.30
2022-12-11T12:51:25.262Z,-3.60
2022-12-11T12:54:31.516Z,-1.80
2022-12-11T12:57:36.800Z,-0.60
2022-12-11T13:00:42.366Z,-0.40
2022-12-11T13:03:56.478Z,-0.20
2022-12-11T13:07:10.748Z,0.60
2022-12-11T13:10:26.456Z,0.80
2022-12-11T13:13:33.525Z,1.00
2022-12-11T13:16:39.876Z,0.40
2022-12-11T13:19:44.154Z,0.10
2022-12-11T13:23:09.846Z,0.10
2022-12-11T13:26:14.043Z,-0.40
2022-12-11T13:29:38.598Z,-1.30
2022-12-11T13:32:44.704Z,-1.00
2022-12-11T13:36:01.900Z,-0.10
2022-12-11T13:39:08.198Z,0.00
2022-12-11T13:42:31.179Z,0.30
2022-12-11T13:45:44.064Z,-0.10
2022-12-11T13:48:48.361Z,-0.50
2022-12-11T13:51:57.411Z,-1.40
2022-12-11T13:55:02.326Z,-2.20
2022-12-11T13:58:17.053Z,-2.40
2022-12-11T14:01:27.673Z,-3.00
2022-12-11T14:04:34.229Z,-3.50
2022-12-11T14:07:41.722Z,-3.90
2022-12-11T14:10:51.127Z,-4.10
2022-12-11T14:13:57.469Z,-4.30
2022-12-11T14:17:02.174Z,-4.50
2022-12-11T14:20:15.280Z,-4.60
2022-12-11T14:23:21.231Z,-4.80
2022-12-11T14:26:27.314Z,-4.90
2022-12-11T14:29:32.896Z,-5.10
2022-12-11T14:32:41.949Z,-5.10
2022-12-11T14:35:47.290Z,-5.20
2022-12-11T14:38:57.437Z,-5.20
2022-12-11T14:42:07.061Z,-5.20
2022-12-11T14:45:14.904Z,-5.20
2022-12-11T14:48:22.217Z,-5.40
2022-12-11T14:51:28.367Z,-5.30
2022-12-11T14:54:35.568Z,-5.40
2022-12-11T14:57:40.342Z,-5.50
2022-12-11T15:00:55.597Z,-5.50
2022-12-11T15:04:03.090Z,-5.60
2022-12-11T15:07:19.708Z,-5.60
2022-12-11T15:10:25.921Z,-5.60
2022-12-11T15:13:30.786Z,-5.60
2022-12-11T15:16:38.088Z,-5.50
2022-12-11T15:19:46.253Z,-5.60
2022-12-11T15:22:51.134Z,-5.50
2022-12-11T15:25:57.729Z,-5.50
2022-12-11T15:29:03.145Z,-5.50
2022-12-11T15:32:09.977Z,-5.40
2022-12-11T15:35:24.143Z,-5.40
2022-12-11T15:38:31.460Z,-5.40
2022-12-11T15:41:35.812Z,-5.40
2022-12-11T15:44:40.713Z,-5.40
2022-12-11T15:47:45.239Z,-5.40
2022-12-11T15:50:49.695Z,-5.40
2022-12-11T15:53:53.714Z,-5.40
2022-12-11T15:56:59.023Z,-5.40
2022-12-11T16:00:04.199Z,-5.40
2022-12-11T16:03:11.192Z,-5.40
2022-12-11T16:06:15.609Z,-5.30
2022-12-11T16:09:19.514Z,-5.30
2022-12-11T16:12:23.845Z,-5.30
2022-12-11T16:15:28.837Z,-5.30
2022-12-11T16:18:33.085Z,-5.30
2022-12-11T16:21:37.229Z,-5.30
2022-12-11T16:24:41.345Z,-5.30
2022-12-11T16:27:45.600Z,-5.20
2022-12-11T16:30:49.995Z,-5.30
2022-12-11T16:33:54.657Z,-5.30
2022-12-11T16:36:59.673Z,-5.20
2022-12-11T16:40:06.413Z,-5.20
2022-12-11T16:43:10.841Z,-5.20
2022-12-11T16:46:19.012Z,-5.20
2022-12-11T16:49:23.510Z,-5.20
2022-12-11T16:52:28.164Z,-5.20
2022-12-11T16:55:32.559Z,-5.20
2022-12-11T16:58:37.199Z,-5.10
2022-12-11T17:01:41.139Z,-5.10
2022-12-11T17:04:52.137Z,-5.10
2022-12-11T17:07:58.921Z,-5.10
2022-12-11T17:11:07.497Z,-5.00
2022-12-11T17:14:12.496Z,-5.10
2022-12-11T17:17:16.723Z,-5.10
2022-12-11T17:20:21.602Z,-5.10
2022-12-11T17:23:27.259Z,-5.10
2022-12-11T17:26:32.169Z,-5.10
2022-12-11T17:29:36.741Z,-5.00
2022-12-11T17:32:41.408Z,-5.00
2022-12-11T17:35:45.681Z,-5.10
2022-12-11T17:38:50.139Z,-5.00
2022-12-11T17:41:54.332Z,-5.00
2022-12-11T17:44:58.800Z,-5.00
2022-12-11T17:48:03.117Z,-5.00
2022-12-11T17:51:08.300Z,-5.00
2022-12-11T17:54:12.898Z,-5.00
2022-12-11T17:57:17.722Z,-5.00
2022-12-11T18:00:24.537Z,-5.00
2022-12-11T18:03:29.756Z,-5.10
2022-12-11T18:06:34.276Z,-5.10
2022-12-11T18:09:39.513Z,-5.10
2022-12-11T18:12:43.853Z,-5.00
2022-12-11T18:15:58.712Z,-5.00
2022-12-11T18:19:04.133Z,-5.00
2022-12-11T18:22:08.025Z,-5.00
2022-12-11T18:25:12.509Z,-5.00
2022-12-11T18:28:17.472Z,-5.00
2022-12-11T18:31:22.482Z,-5.00
2022-12-11T18:34:27.078Z,-5.00
2022-12-11T18:37:31.652Z,-5.00
2022-12-11T18:40:35.595Z,-4.90
2022-12-11T18:43:40.134Z,-4.90
2022-12-11T18:46:44.108Z,-4.90
2022-12-11T18:49:48.846Z,-4.90
2022-12-11T18:52:55.850Z,-4.90
2022-12-11T18:56:00.683Z,-4.90
2022-12-11T18:59:05.309Z,-4.80
2022-12-11T19:02:10.572Z,-4.80
2022-12-11T19:05:15.391Z,-4.80
2022-12-11T19:08:19.962Z,-4.80
2022-12-11T19:11:26.063Z,-4.80
2022-12-11T19:14:30.681Z,-4.80
2022-12-11T19:17:36.636Z,-4.80
2022-12-11T19:20:55.627Z,-4.80
2022-12-11T19:24:08.426Z,-4.80
2022-12-11T19:27:13.837Z,-4.80
2022-12-11T19:30:18.707Z,-4.80
2022-12-11T19:33:23.724Z,-4.70
2022-12-11T19:36:30.394Z,-4.80
2022-12-11T19:39:34.785Z,-4.60
2022-12-11T19:42:39.307Z,-4.60
2022-12-11T19:45:45.834Z,-4.60
2022-12-11T19:48:51.672Z,-4.70
2022-12-11T19:51:56.731Z,-4.60
2022-12-11T19:55:02.541Z,-4.60
2022-12-11T19:58:07.024Z,-4.50
2022-12-11T20:01:25.036Z,-4.60
2022-12-11T20:04:29.488Z,-4.50
2022-12-11T20:07:33.701Z,-4.50
2022-12-11T20:10:38.406Z,-4.50
2022-12-11T20:13:43.207Z,-4.40
2022-12-11T20:17:09.714Z,-4.40
2022-12-11T20:20:12.292Z,-4.30
2022-12-11T20:23:16.993Z,-4.30
2022-12-11T20:26:22.905Z,-4.20
2022-12-11T20:29:26.937Z,-4.30
2022-12-11T20:32:53.079Z,-4.30
2022-12-11T20:35:57.681Z,-4.20
2022-12-11T20:39:02.321Z,-4.20
2022-12-11T20:42:08.503Z,-4.20
2022-12-11T20:45:13.481Z,-4.20
2022-12-11T20:48:18.372Z,-4.10
2022-12-11T20:51:26.106Z,-4.10
2022-12-11T20:54:30.763Z,-4.10
2022-12-11T20:57:35.030Z,-4.10
2022-12-11T21:00:40.232Z,-4.10
2022-12-11T21:03:45.153Z,-4.10
2022-12-11T21:06:55.325Z,-4.00
2022-12-11T21:09:59.951Z,-4.20
2022-12-11T21:13:04.464Z,-3.70
2022-12-11T21:16:09.774Z,-3.90
2022-12-11T21:19:17.072Z,-3.90
2022-12-11T21:22:21.893Z,-3.90
2022-12-11T21:25:26.658Z,-3.90
2022-12-11T21:28:35.538Z,-3.80
2022-12-11T21:31:40.401Z,-3.80
2022-12-11T21:34:44.973Z,-3.80
2022-12-11T21:37:49.246Z,-3.80
2022-12-11T21:40:54.356Z,-3.80
2022-12-11T21:47:22.987Z,-3.80
2022-12-11T21:50:26.972Z,-3.70
2022-12-11T21:53:31.625Z,-3.70
2022-12-11T21:56:36.567Z,-3.70
2022-12-11T21:59:40.988Z,-3.70
2022-12-11T22:02:45.707Z,-3.70
2022-12-11T22:05:53.857Z,-3.70
2022-12-11T22:09:01.481Z,-3.70
2022-12-11T22:12:08.314Z,-3.60
2022-12-11T22:15:12.776Z,-3.60
2022-12-11T22:18:17.959Z,-3.60
2022-12-11T22:21:22.135Z,-3.70
2022-12-11T22:24:26.816Z,-3.70
2022-12-11T22:27:31.368Z,-3.70
2022-12-11T22:30:36.814Z,-3.70
2022-12-11T22:33:40.880Z,-3.70
2022-12-11T22:36:45.312Z,-3.70
2022-12-11T22:39:49.671Z,-3.70
2022-12-11T22:42:54.058Z,-3.60
2022-12-11T22:45:59.841Z,-3.70
2022-12-11T22:49:04.498Z,-3.70
2022-12-11T22:52:09.925Z,-3.70
2022-12-11T22:55:15.323Z,-3.70
2022-12-11T22:58:21.918Z,-3.70
2022-12-11T23:01:27.285Z,-3.80
2022-12-11T23:04:31.930Z,-3.80
2022-12-11T23:07:36.953Z,-3.80
2022-12-11T23:10:43.189Z,-3.90
2022-12-11T23:13:47.690Z,-3.80
2022-12-11T23:16:52.096Z,-3.80
2022-12-11T23:19:57.118Z,-3.80
2022-12-11T23:23:01.435Z,-3.90
2022-12-11T23:26:07.582Z,-3.80
2022-12-11T23:29:12.113Z,-3.90
2022-12-11T23:32:16.471Z,-3.90
2022-12-11T23:35:20.648Z,-3.90
2022-12-11T23:38:25.309Z,-4.00
2022-12-11T23:41:29.800Z,-4.00
2022-12-11T23:44:34.126Z,-4.00
2022-12-11T23:47:38.468Z,-4.00
2022-12-11T23:50:43.277Z,-4.00
2022-12-11T23:53:47.801Z,-4.10
2022-12-11T23:56:52.415Z,-4.10
2022-12-11T23:59:57.064Z,-4.20
